createdAt,value
2018-10-18T00:01:17.044Z,14.14
2018-10-18T00:03:45.603Z,14.13
2018-10-18T00:06:14.227Z,14.13
2018-10-18T00:08:42.726Z,14.13
2018-10-18T00:11:11.242Z,14.17
2018-10-18T00:13:39.760Z,14.18
2018-10-18T00:16:08.753Z,14.15
2018-10-18T00:18:37.246Z,14.14
2018-10-18T00:21:06.391Z,14.16
2018-10-18T00:23:34.936Z,14.18
2018-10-18T00:26:05.647Z,14.13
2018-10-18T00:28:34.206Z,14.17
2018-10-18T00:31:04.477Z,14.12
2018-10-18T00:33:33.071Z,14.17
2018-10-18T00:36:03.338Z,14.17
2018-10-18T00:38:32.110Z,14.11
2018-10-18T00:41:00.690Z,14.16
2018-10-18T00:43:29.211Z,14.15
2018-10-18T00:45:57.723Z,14.12
2018-10-18T00:48:26.260Z,14.10
2018-10-18T00:50:55.314Z,14.12
2018-10-18T00:53:23.801Z,14.14
2018-10-18T00:55:52.311Z,14.14
2018-10-18T00:58:20.828Z,14.13
2018-10-18T01:00:49.465Z,14.14
2018-10-18T01:03:17.972Z,14.10
2018-10-18T01:05:46.828Z,14.14
2018-10-18T01:08:15.411Z,14.09
2018-10-18T01:10:44.036Z,14.08
2018-10-18T01:13:12.576Z,14.08
2018-10-18T01:15:41.121Z,14.04
2018-10-18T01:18:10.029Z,14.13
2018-10-18T01:20:38.606Z,14.10
2018-10-18T01:23:07.560Z,14.04
2018-10-18T01:25:36.084Z,14.03
2018-10-18T01:28:05.760Z,14.00
2018-10-18T01:30:34.288Z,14.04
2018-10-18T01:33:04.787Z,14.11
2018-10-18T01:35:33.311Z,14.19
2018-10-18T01:38:03.065Z,14.09
2018-10-18T01:40:31.693Z,14.03
2018-10-18T01:43:00.197Z,14.06
2018-10-18T01:45:29.065Z,13.99
2018-10-18T01:47:57.686Z,13.95
2018-10-18T01:50:26.157Z,13.86
2018-10-18T01:52:54.661Z,13.91
2018-10-18T01:55:23.196Z,13.88
2018-10-18T01:57:51.721Z,13.94
2018-10-18T02:00:20.385Z,13.88
2018-10-18T02:02:48.853Z,13.91
2018-10-18T02:05:17.464Z,13.78
2018-10-18T02:07:45.992Z,13.68
2018-10-18T02:10:14.689Z,13.60
2018-10-18T02:12:43.215Z,13.55
2018-10-18T02:15:11.880Z,13.36
2018-10-18T02:17:41.056Z,13.31
2018-10-18T02:20:10.444Z,13.31
2018-10-18T02:22:39.269Z,13.36
2018-10-18T02:25:08.159Z,13.27
2018-10-18T02:27:36.735Z,13.25
2018-10-18T02:30:06.433Z,13.26
2018-10-18T02:32:34.929Z,13.23
2018-10-18T02:35:06.298Z,13.30
2018-10-18T02:37:34.842Z,13.23
2018-10-18T02:40:04.096Z,13.17
2018-10-18T02:42:32.649Z,13.16
2018-10-18T02:45:02.732Z,13.27
2018-10-18T02:47:31.275Z,13.26
2018-10-18T02:50:00.026Z,13.04
2018-10-18T02:52:28.784Z,12.98
2018-10-18T02:54:57.311Z,12.94
2018-10-18T02:57:25.854Z,12.75
2018-10-18T02:59:54.447Z,12.69
2018-10-18T03:02:22.970Z,12.75
2018-10-18T03:04:51.465Z,12.96
2018-10-18T03:07:20.053Z,12.92
2018-10-18T03:09:48.565Z,12.76
2018-10-18T03:12:17.163Z,12.78
2018-10-18T03:14:45.640Z,12.86
2018-10-18T03:17:14.186Z,12.81
2018-10-18T03:19:42.695Z,12.70
2018-10-18T03:22:11.233Z,12.67
2018-10-18T03:24:39.786Z,12.57
2018-10-18T03:27:08.316Z,12.44
2018-10-18T03:29:40.268Z,12.33
2018-10-18T03:32:08.813Z,12.32
2018-10-18T03:34:38.876Z,12.27
2018-10-18T03:37:07.406Z,12.15
2018-10-18T03:39:35.934Z,12.08
2018-10-18T03:42:05.203Z,12.03
2018-10-18T03:44:33.707Z,11.90
2018-10-18T03:47:05.692Z,11.87
2018-10-18T03:49:34.250Z,11.89
2018-10-18T03:52:04.887Z,11.78
2018-10-18T03:54:33.592Z,11.87
2018-10-18T03:57:03.749Z,11.86
2018-10-18T03:59:32.314Z,11.90
2018-10-18T04:02:00.917Z,11.85
2018-10-18T04:04:29.801Z,11.80
2018-10-18T04:06:58.305Z,11.79
2018-10-18T04:09:27.207Z,11.73
2018-10-18T04:11:55.831Z,11.68
2018-10-18T04:14:24.355Z,11.64
2018-10-18T04:16:52.950Z,11.65
2018-10-18T04:19:21.491Z,11.59
2018-10-18T04:21:50.000Z,11.58
2018-10-18T04:24:18.581Z,11.45
2018-10-18T04:26:47.133Z,11.46
2018-10-18T04:29:15.670Z,11.53
2018-10-18T04:31:44.260Z,11.50
2018-10-18T04:34:12.844Z,11.50
2018-10-18T04:36:41.724Z,11.45
2018-10-18T04:39:12.756Z,11.53
2018-10-18T04:41:41.318Z,11.59
2018-10-18T04:44:09.897Z,11.42
2018-10-18T04:46:38.559Z,11.58
2018-10-18T04:49:07.077Z,11.55
2018-10-18T04:51:35.655Z,11.54
2018-10-18T04:54:05.609Z,11.57
2018-10-18T04:56:34.142Z,11.66
2018-10-18T04:59:04.190Z,11.85
2018-10-18T05:01:32.852Z,12.08
2018-10-18T05:04:05.138Z,12.17
2018-10-18T05:06:33.690Z,12.21
2018-10-18T05:09:05.990Z,12.20
2018-10-18T05:11:34.562Z,12.23
2018-10-18T05:14:05.192Z,12.34
2018-10-18T05:16:34.009Z,12.43
2018-10-18T05:19:04.630Z,12.44
2018-10-18T05:21:33.169Z,12.51
2018-10-18T05:24:03.609Z,12.61
2018-10-18T05:26:32.116Z,12.54
2018-10-18T05:29:00.621Z,12.52
2018-10-18T05:31:29.224Z,12.60
2018-10-18T05:33:57.833Z,12.65
2018-10-18T05:36:26.642Z,12.53
2018-10-18T05:38:55.149Z,12.36
2018-10-18T05:41:24.176Z,12.15
2018-10-18T05:43:52.783Z,12.12
2018-10-18T05:46:21.295Z,12.26
2018-10-18T05:48:49.808Z,12.37
2018-10-18T05:51:18.363Z,12.44
2018-10-18T05:53:46.904Z,12.41
2018-10-18T05:56:15.414Z,12.28
2018-10-18T05:58:44.696Z,12.22
2018-10-18T06:01:13.441Z,12.26
2018-10-18T06:03:41.959Z,12.36
2018-10-18T06:06:10.496Z,12.52
2018-10-18T06:08:39.058Z,12.66
2018-10-18T06:11:18.878Z,12.62
2018-10-18T06:13:47.529Z,12.63
2018-10-18T06:16:16.049Z,12.69
2018-10-18T06:18:44.551Z,12.64
2018-10-18T06:21:13.235Z,12.59
2018-10-18T06:23:41.764Z,12.62
2018-10-18T06:26:10.348Z,12.57
2018-10-18T06:28:39.256Z,12.65
2018-10-18T06:31:07.842Z,12.62
2018-10-18T06:33:36.363Z,12.70
2018-10-18T06:36:05.737Z,12.56
2018-10-18T06:38:34.234Z,12.51
2018-10-18T06:41:04.420Z,12.62
2018-10-18T06:43:38.647Z,12.66
2018-10-18T06:46:09.432Z,12.72
2018-10-18T06:48:38.015Z,12.62
2018-10-18T06:51:06.813Z,12.64
2018-10-18T06:53:37.019Z,12.65
2018-10-18T06:56:12.269Z,12.66
2018-10-18T06:58:40.835Z,12.68
2018-10-18T07:01:09.382Z,12.73
2018-10-18T07:03:37.952Z,12.77
2018-10-18T07:06:06.559Z,12.73
2018-10-18T07:08:35.095Z,12.76
2018-10-18T07:11:05.571Z,12.78
2018-10-18T07:13:33.931Z,12.81
2018-10-18T07:16:03.930Z,12.85
2018-10-18T07:18:32.478Z,12.90
2018-10-18T07:21:04.308Z,12.92
2018-10-18T07:23:32.917Z,13.00
2018-10-18T07:26:03.248Z,13.12
2018-10-18T07:28:31.820Z,13.07
2018-10-18T07:31:00.357Z,13.08
2018-10-18T07:33:28.907Z,13.17
2018-10-18T07:35:57.460Z,13.27
2018-10-18T07:38:26.060Z,13.34
2018-10-18T07:40:54.602Z,13.36
2018-10-18T07:43:23.319Z,13.42
2018-10-18T07:45:51.923Z,13.43
2018-10-18T07:48:20.436Z,13.46
2018-10-18T07:50:48.977Z,13.54
2018-10-18T07:53:17.642Z,13.58
2018-10-18T07:55:46.124Z,13.52
2018-10-18T07:58:14.674Z,13.63
2018-10-18T08:00:43.677Z,13.75
2018-10-18T08:03:12.372Z,13.74
2018-10-18T08:05:40.977Z,13.85
2018-10-18T08:08:09.524Z,13.98
2018-10-18T08:10:38.322Z,14.10
2018-10-18T08:13:07.498Z,14.16
2018-10-18T08:15:36.084Z,14.20
2018-10-18T08:18:06.274Z,14.32
2018-10-18T08:20:34.859Z,14.22
2018-10-18T08:23:04.536Z,14.43
2018-10-18T08:25:33.079Z,14.46
2018-10-18T08:28:02.968Z,14.53
2018-10-18T08:30:31.487Z,14.51
2018-10-18T08:33:00.001Z,14.55
2018-10-18T08:35:28.790Z,14.52
2018-10-18T08:37:57.455Z,14.37
2018-10-18T08:40:25.922Z,14.38
2018-10-18T08:42:54.434Z,14.37
2018-10-18T08:45:23.227Z,14.31
2018-10-18T08:47:51.732Z,14.37
2018-10-18T08:50:20.352Z,14.24
2018-10-18T08:52:49.103Z,14.25
2018-10-18T08:55:17.702Z,14.25
2018-10-18T08:57:46.196Z,14.28
2018-10-18T09:00:14.837Z,14.35
2018-10-18T09:02:43.683Z,14.29
2018-10-18T09:05:12.658Z,14.35
2018-10-18T09:07:41.170Z,14.48
2018-10-18T09:10:09.839Z,14.56
2018-10-18T09:12:38.499Z,14.50
2018-10-18T09:15:08.214Z,14.58
2018-10-18T09:17:36.913Z,14.71
2018-10-18T09:20:05.810Z,14.63
2018-10-18T09:22:34.437Z,14.55
2018-10-18T09:25:04.408Z,14.45
2018-10-18T09:27:32.876Z,14.30
2018-10-18T09:30:03.343Z,14.30
2018-10-18T09:32:32.316Z,14.39
2018-10-18T09:35:00.899Z,14.51
2018-10-18T09:37:29.462Z,14.40
2018-10-18T09:39:57.980Z,14.57
2018-10-18T09:42:26.583Z,14.76
2018-10-18T09:44:55.322Z,14.86
2018-10-18T09:47:23.725Z,14.87
2018-10-18T09:49:52.453Z,14.82
2018-10-18T09:52:20.990Z,14.86
2018-10-18T09:54:49.998Z,14.63
2018-10-18T09:57:18.603Z,14.68
2018-10-18T09:59:47.079Z,14.88
2018-10-18T10:02:20.852Z,14.97
2018-10-18T10:04:49.367Z,15.14
2018-10-18T10:07:18.146Z,15.06
2018-10-18T10:09:46.704Z,15.09
2018-10-18T10:12:15.255Z,15.10
2018-10-18T10:14:43.821Z,15.10
2018-10-18T10:17:12.436Z,14.97
2018-10-18T10:19:41.067Z,14.99
2018-10-18T10:22:09.563Z,15.12
2018-10-18T10:24:38.170Z,15.03
2018-10-18T10:27:06.750Z,14.82
2018-10-18T10:29:35.473Z,14.68
2018-10-18T10:32:05.765Z,14.58
2018-10-18T10:34:34.290Z,14.56
2018-10-18T10:37:04.737Z,14.82
2018-10-18T10:39:33.303Z,14.91
2018-10-18T10:42:02.564Z,14.90
2018-10-18T10:44:31.050Z,15.22
2018-10-18T10:46:59.658Z,15.16
2018-10-18T10:49:28.247Z,15.23
2018-10-18T10:51:56.862Z,15.24
2018-10-18T10:54:25.467Z,15.08
2018-10-18T10:56:54.071Z,15.39
2018-10-18T10:59:22.574Z,15.46
2018-10-18T11:01:51.130Z,15.46
2018-10-18T11:04:19.726Z,15.79
2018-10-18T11:06:48.263Z,16.26
2018-10-18T11:09:16.966Z,16.17
2018-10-18T11:11:45.383Z,16.19
2018-10-18T11:14:14.042Z,16.20
2018-10-18T11:16:42.553Z,15.90
2018-10-18T11:19:11.076Z,15.57
2018-10-18T11:21:39.748Z,15.52
2018-10-18T11:24:08.366Z,15.58
2018-10-18T11:26:36.841Z,15.84
2018-10-18T11:29:05.960Z,15.98
2018-10-18T11:31:34.574Z,16.07
2018-10-18T11:34:05.142Z,16.01
2018-10-18T11:36:33.695Z,15.84
2018-10-18T11:39:10.119Z,15.90
2018-10-18T11:41:38.715Z,16.01
2018-10-18T11:44:07.345Z,15.78
2018-10-18T11:46:35.976Z,15.77
2018-10-18T11:49:05.378Z,15.97
2018-10-18T11:51:34.477Z,15.96
2018-10-18T11:54:05.193Z,16.13
2018-10-18T11:56:33.770Z,16.17
2018-10-18T11:59:03.802Z,15.97
2018-10-18T12:01:32.696Z,15.95
2018-10-18T12:04:04.129Z,16.39
2018-10-18T12:06:32.691Z,16.62
2018-10-18T12:09:03.132Z,16.08
2018-10-18T12:11:31.713Z,16.01
2018-10-18T12:14:00.278Z,15.74
2018-10-18T12:16:28.914Z,15.98
2018-10-18T12:18:57.560Z,15.96
2018-10-18T12:21:26.987Z,16.03
2018-10-18T12:23:55.573Z,16.27
2018-10-18T12:26:24.568Z,16.32
2018-10-18T12:28:53.193Z,15.95
2018-10-18T12:31:21.749Z,15.87
2018-10-18T12:33:50.296Z,16.08
2018-10-18T12:36:19.163Z,15.82
2018-10-18T12:38:48.038Z,15.90
2018-10-18T12:41:18.535Z,15.95
2018-10-18T12:43:46.912Z,15.96
2018-10-18T12:46:15.832Z,16.11
2018-10-18T12:48:44.371Z,16.13
2018-10-18T12:51:13.029Z,16.40
2018-10-18T12:53:41.595Z,16.22
2018-10-18T12:56:10.299Z,16.15
2018-10-18T12:58:38.798Z,15.90
2018-10-18T13:01:07.400Z,15.99
2018-10-18T13:03:35.944Z,16.32
2018-10-18T13:06:05.245Z,16.30
2018-10-18T13:08:33.845Z,16.30
2018-10-18T13:11:03.740Z,16.65
2018-10-18T13:13:32.479Z,16.34
2018-10-18T13:16:03.210Z,16.33
2018-10-18T13:18:31.819Z,16.33
2018-10-18T13:21:00.445Z,16.43
2018-10-18T13:23:29.095Z,16.44
2018-10-18T13:25:57.705Z,16.51
2018-10-18T13:28:26.287Z,16.94
2018-10-18T13:30:54.845Z,16.96
2018-10-18T13:33:23.406Z,17.21
2018-10-18T13:35:52.012Z,17.37
2018-10-18T13:38:20.582Z,17.35
2018-10-18T13:40:49.236Z,17.61
2018-10-18T13:43:17.962Z,17.60
2018-10-18T13:45:46.485Z,17.98
2018-10-18T13:48:15.079Z,17.79
2018-10-18T13:50:43.653Z,17.80
2018-10-18T13:53:12.226Z,17.35
2018-10-18T13:55:40.812Z,17.52
2018-10-18T13:58:09.869Z,17.16
2018-10-18T14:00:39.637Z,17.44
2018-10-18T14:03:08.223Z,17.61
2018-10-18T14:05:36.875Z,17.26
2018-10-18T14:08:05.921Z,16.80
2018-10-18T14:10:34.413Z,17.06
2018-10-18T14:13:04.862Z,16.80
2018-10-18T14:15:33.414Z,17.75
2018-10-18T14:18:02.737Z,18.32
2018-10-18T14:20:31.593Z,18.10
2018-10-18T14:23:00.203Z,18.99
2018-10-18T14:25:30.685Z,19.12
2018-10-18T14:27:59.291Z,17.98
2018-10-18T14:30:27.861Z,18.01
2018-10-18T14:32:56.362Z,17.91
2018-10-18T14:35:24.942Z,17.31
2018-10-18T14:37:53.617Z,16.95
2018-10-18T14:40:22.302Z,16.76
2018-10-18T14:42:50.840Z,16.51
2018-10-18T14:45:19.522Z,16.28
2018-10-18T14:47:48.156Z,16.51
2018-10-18T14:50:16.756Z,16.39
2018-10-18T14:52:45.204Z,16.05
2018-10-18T14:55:22.530Z,15.94
2018-10-18T14:57:51.192Z,16.10
2018-10-18T15:00:19.713Z,15.85
2018-10-18T15:02:48.268Z,15.76
2018-10-18T15:05:16.877Z,15.93
2018-10-18T15:07:45.431Z,15.84
2018-10-18T15:10:14.718Z,15.85
2018-10-18T15:12:43.502Z,15.83
2018-10-18T15:15:13.353Z,15.78
2018-10-18T15:17:42.176Z,15.91
2018-10-18T15:20:11.653Z,15.75
2018-10-18T15:22:41.237Z,15.76
2018-10-18T15:25:11.571Z,15.61
2018-10-18T15:27:40.518Z,15.61
2018-10-18T15:30:09.914Z,15.54
2018-10-18T15:32:39.192Z,15.50
2018-10-18T15:35:08.899Z,15.50
2018-10-18T15:37:37.649Z,15.56
2018-10-18T15:40:06.735Z,15.48
2018-10-18T15:42:35.495Z,15.39
2018-10-18T15:45:05.714Z,15.28
2018-10-18T15:47:34.320Z,15.22
2018-10-18T15:50:06.054Z,15.29
2018-10-18T15:52:34.701Z,15.08
2018-10-18T15:55:06.033Z,14.89
2018-10-18T15:57:34.603Z,14.81
2018-10-18T16:00:06.655Z,14.73
2018-10-18T16:02:35.906Z,14.65
2018-10-18T16:05:06.078Z,14.67
2018-10-18T16:07:34.507Z,14.61
2018-10-18T16:10:05.415Z,14.50
2018-10-18T16:12:33.955Z,14.41
2018-10-18T16:15:04.077Z,14.47
2018-10-18T16:17:32.738Z,14.33
2018-10-18T16:20:04.165Z,14.29
2018-10-18T16:22:32.739Z,14.13
2018-10-18T16:25:03.525Z,14.09
2018-10-18T16:27:32.256Z,14.00
2018-10-18T16:30:00.767Z,13.93
2018-10-18T16:32:29.323Z,13.76
2018-10-18T16:34:57.887Z,13.61
2018-10-18T16:37:26.398Z,13.57
2018-10-18T16:39:54.953Z,13.50
2018-10-18T16:42:23.490Z,13.41
2018-10-18T16:44:52.092Z,13.26
2018-10-18T16:47:20.651Z,13.08
2018-10-18T16:49:49.273Z,13.01
2018-10-18T16:52:18.244Z,12.96
2018-10-18T16:54:46.790Z,12.83
2018-10-18T16:57:15.384Z,12.73
2018-10-18T16:59:43.966Z,12.75
2018-10-18T17:02:12.555Z,12.65
2018-10-18T17:04:41.169Z,12.53
2018-10-18T17:07:09.748Z,12.47
2018-10-18T17:09:38.297Z,12.41
2018-10-18T17:12:07.248Z,12.38
2018-10-18T17:14:35.857Z,12.33
2018-10-18T17:17:05.717Z,12.28
2018-10-18T17:19:34.289Z,12.29
2018-10-18T17:22:04.538Z,12.24
2018-10-18T17:24:33.126Z,12.12
2018-10-18T17:27:03.192Z,12.07
2018-10-18T17:29:31.628Z,11.96
2018-10-18T17:32:00.209Z,11.88
2018-10-18T17:34:28.775Z,11.83
2018-10-18T17:36:57.358Z,11.78
2018-10-18T17:39:25.875Z,11.68
2018-10-18T17:41:54.404Z,11.60
2018-10-18T17:44:23.312Z,11.67
2018-10-18T17:46:51.831Z,11.50
2018-10-18T17:49:20.312Z,11.45
2018-10-18T17:51:48.938Z,11.44
2018-10-18T17:54:17.591Z,11.43
2018-10-18T17:56:46.195Z,11.41
2018-10-18T17:59:14.807Z,11.39
2018-10-18T18:01:43.943Z,11.24
2018-10-18T18:04:12.532Z,11.13
2018-10-18T18:06:41.203Z,11.11
2018-10-18T18:09:09.819Z,11.17
2018-10-18T18:11:38.510Z,11.14
2018-10-18T18:14:07.086Z,11.22
2018-10-18T18:16:35.649Z,11.17
2018-10-18T18:19:05.330Z,11.13
2018-10-18T18:21:33.913Z,11.01
2018-10-18T18:24:04.064Z,11.12
2018-10-18T18:26:44.957Z,11.20
2018-10-18T18:29:03.837Z,11.12
2018-10-18T18:31:32.400Z,11.08
2018-10-18T18:34:01.000Z,11.03
2018-10-18T18:36:29.522Z,10.92
2018-10-18T18:38:58.231Z,10.90
2018-10-18T18:41:26.859Z,10.80
2018-10-18T18:43:55.548Z,10.96
2018-10-18T18:46:24.105Z,10.88
2018-10-18T18:48:52.670Z,10.80
2018-10-18T18:51:21.300Z,10.71
2018-10-18T18:53:49.794Z,10.63
2018-10-18T18:56:18.367Z,10.60
2018-10-18T18:58:46.966Z,10.43
2018-10-18T19:01:15.499Z,10.39
2018-10-18T19:03:44.104Z,10.35
2018-10-18T19:06:12.733Z,10.40
2018-10-18T19:08:41.346Z,10.26
2018-10-18T19:11:09.892Z,10.26
2018-10-18T19:13:38.458Z,10.23
2018-10-18T19:16:07.063Z,10.17
2018-10-18T19:18:35.593Z,10.10
2018-10-18T19:21:05.755Z,10.11
2018-10-18T19:23:35.100Z,10.08
2018-10-18T19:26:06.048Z,10.10
2018-10-18T19:28:34.801Z,9.99
2018-10-18T19:31:04.436Z,9.88
2018-10-18T19:33:33.830Z,9.91
2018-10-18T19:36:03.748Z,9.77
2018-10-18T19:38:32.398Z,9.76
2018-10-18T19:41:00.933Z,9.74
2018-10-18T19:43:29.457Z,9.63
2018-10-18T19:45:58.026Z,9.57
2018-10-18T19:48:26.627Z,9.64
2018-10-18T19:50:55.322Z,9.58
2018-10-18T19:53:24.415Z,9.62
2018-10-18T19:55:53.015Z,9.57
2018-10-18T19:58:21.578Z,9.46
2018-10-18T20:00:50.180Z,9.40
2018-10-18T20:03:18.723Z,9.39
2018-10-18T20:05:47.264Z,9.37
2018-10-18T20:08:16.007Z,9.31
2018-10-18T20:10:44.664Z,9.24
2018-10-18T20:13:13.285Z,9.18
2018-10-18T20:15:41.908Z,9.05
2018-10-18T20:18:10.535Z,8.97
2018-10-18T20:20:39.058Z,9.08
2018-10-18T20:23:07.756Z,9.15
2018-10-18T20:25:36.438Z,9.26
2018-10-18T20:28:06.270Z,9.40
2018-10-18T20:30:35.531Z,9.49
2018-10-18T20:33:05.624Z,9.54
2018-10-18T20:35:34.136Z,9.62
2018-10-18T20:38:05.332Z,9.67
2018-10-18T20:40:33.991Z,9.78
2018-10-18T20:43:03.718Z,9.68
2018-10-18T20:45:36.063Z,9.65
2018-10-18T20:48:06.226Z,9.67
2018-10-18T20:50:34.769Z,9.53
2018-10-18T20:53:04.635Z,9.57
2018-10-18T20:55:33.249Z,9.58
2018-10-18T20:58:03.905Z,9.66
2018-10-18T21:00:32.474Z,9.78
2018-10-18T21:03:03.380Z,9.77
2018-10-18T21:05:31.916Z,9.78
2018-10-18T21:08:00.581Z,9.77
2018-10-18T21:10:29.153Z,9.81
2018-10-18T21:12:57.839Z,9.87
2018-10-18T21:15:26.390Z,9.80
2018-10-18T21:17:54.969Z,9.86
2018-10-18T21:20:23.500Z,9.83
2018-10-18T21:22:52.376Z,9.82
2018-10-18T21:25:21.340Z,9.83
2018-10-18T21:27:50.021Z,9.72
2018-10-18T21:30:18.506Z,9.69
2018-10-18T21:32:47.038Z,9.69
2018-10-18T21:35:15.695Z,9.65
2018-10-18T21:37:44.241Z,9.66
2018-10-18T21:40:12.772Z,9.70
2018-10-18T21:42:41.417Z,9.69
2018-10-18T21:45:10.070Z,9.74
2018-10-18T21:47:38.687Z,9.77
2018-10-18T21:50:07.515Z,9.73
2018-10-18T21:52:36.325Z,9.82
2018-10-18T21:55:05.464Z,9.87
2018-10-18T21:57:33.987Z,9.82
2018-10-18T22:00:04.850Z,9.82
2018-10-18T22:02:33.412Z,9.88
2018-10-18T22:05:03.456Z,9.93
2018-10-18T22:07:31.974Z,9.91
2018-10-18T22:10:00.501Z,9.96
2018-10-18T22:12:29.081Z,9.97
2018-10-18T22:14:58.537Z,9.96
2018-10-18T22:17:27.084Z,10.00
2018-10-18T22:19:55.702Z,10.02
2018-10-18T22:22:24.224Z,10.02
2018-10-18T22:24:52.988Z,9.96
2018-10-18T22:27:21.500Z,9.99
2018-10-18T22:29:50.062Z,10.03
2018-10-18T22:32:18.580Z,10.04
2018-10-18T22:34:47.129Z,10.03
2018-10-18T22:37:15.746Z,10.02
2018-10-18T22:39:44.298Z,10.07
2018-10-18T22:42:12.893Z,10.12
2018-10-18T22:44:41.493Z,10.11
2018-10-18T22:47:10.134Z,10.20
2018-10-18T22:49:38.607Z,10.20
2018-10-18T22:52:07.147Z,10.19
2018-10-18T22:54:37.551Z,10.20
2018-10-18T22:57:06.160Z,10.25
2018-10-18T22:59:34.689Z,10.16
2018-10-18T23:02:06.778Z,10.14
2018-10-18T23:04:35.380Z,10.19
2018-10-18T23:07:05.846Z,10.13
2018-10-18T23:09:34.368Z,10.18
2018-10-18T23:12:06.223Z,10.20
2018-10-18T23:14:34.735Z,10.16
2018-10-18T23:17:05.017Z,10.09
2018-10-18T23:19:33.563Z,10.04
2018-10-18T23:22:06.749Z,10.03
2018-10-18T23:24:37.118Z,10.04
2018-10-18T23:27:06.746Z,10.02
2018-10-18T23:29:36.562Z,10.01
2018-10-18T23:32:05.681Z,9.98
2018-10-18T23:34:34.209Z,9.97
2018-10-18T23:37:05.474Z,9.98
2018-10-18T23:39:34.066Z,10.07
2018-10-18T23:42:05.780Z,9.99
2018-10-18T23:44:34.291Z,10.01
2018-10-18T23:47:05.210Z,9.94
2018-10-18T23:49:33.682Z,9.87
2018-10-18T23:52:03.798Z,9.86
2018-10-18T23:54:32.335Z,9.81
2018-10-18T23:57:00.890Z,9.84
2018-10-18T23:59:29.432Z,9.84
